createdAt,value
2017-01-23T00:00:57.644Z,0
2017-01-23T00:02:06.301Z,0
2017-01-23T00:03:14.945Z,0
2017-01-23T00:04:23.597Z,0
2017-01-23T00:05:32.262Z,0
2017-01-23T00:06:40.913Z,0
2017-01-23T00:07:49.570Z,0
2017-01-23T00:08:58.213Z,0
2017-01-23T00:10:06.863Z,0
2017-01-23T00:11:15.511Z,0
2017-01-23T00:12:24.174Z,0
2017-01-23T00:13:32.827Z,0
2017-01-23T00:14:41.480Z,0
2017-01-23T00:15:50.127Z,0
2017-01-23T00:16:58.773Z,0
2017-01-23T00:18:07.452Z,0
2017-01-23T00:19:16.104Z,0
2017-01-23T00:20:24.759Z,0
2017-01-23T00:21:33.400Z,0
2017-01-23T00:22:42.046Z,0
2017-01-23T00:23:50.698Z,0
2017-01-23T00:24:59.343Z,0
2017-01-23T00:26:07.994Z,0
2017-01-23T00:27:16.640Z,0
2017-01-23T00:28:25.278Z,0
2017-01-23T00:29:33.931Z,0
2017-01-23T00:30:42.574Z,0
2017-01-23T00:31:51.226Z,0
2017-01-23T00:32:59.880Z,0
2017-01-23T00:34:08.533Z,0
2017-01-23T00:35:17.180Z,0
2017-01-23T00:36:25.825Z,0
2017-01-23T00:37:34.476Z,0
2017-01-23T00:38:43.127Z,0
2017-01-23T00:39:51.774Z,0
2017-01-23T00:41:00.415Z,0
2017-01-23T00:42:09.066Z,0
2017-01-23T00:43:17.712Z,0
2017-01-23T00:44:26.361Z,0
2017-01-23T00:45:35.007Z,0
2017-01-23T00:46:43.647Z,0
2017-01-23T00:47:52.317Z,0
2017-01-23T00:49:00.962Z,0
2017-01-23T00:50:09.617Z,0
2017-01-23T00:51:18.260Z,0
2017-01-23T00:52:26.910Z,0
2017-01-23T00:53:35.564Z,0
2017-01-23T00:54:44.208Z,0
2017-01-23T00:55:52.850Z,0
2017-01-23T00:57:01.499Z,0
2017-01-23T00:58:10.529Z,0
2017-01-23T00:59:19.173Z,0
2017-01-23T01:00:27.820Z,0
2017-01-23T01:01:36.471Z,0
2017-01-23T01:02:45.117Z,0
2017-01-23T01:03:53.766Z,0
2017-01-23T01:05:02.445Z,0
2017-01-23T01:06:11.093Z,0
2017-01-23T01:07:19.746Z,0
2017-01-23T01:08:28.393Z,0
2017-01-23T01:09:37.039Z,0
2017-01-23T01:10:45.713Z,0
2017-01-23T01:11:54.389Z,0
2017-01-23T01:13:03.031Z,0
2017-01-23T01:14:11.684Z,0
2017-01-23T01:15:20.334Z,0
2017-01-23T01:16:28.980Z,0
2017-01-23T01:17:37.626Z,0
2017-01-23T01:18:46.272Z,0
2017-01-23T01:19:54.921Z,0
2017-01-23T01:21:03.570Z,0
2017-01-23T01:22:12.229Z,0
2017-01-23T01:23:20.870Z,0
2017-01-23T01:24:29.513Z,0
2017-01-23T01:25:38.156Z,0
2017-01-23T01:26:46.799Z,0
2017-01-23T01:27:55.448Z,0
2017-01-23T01:29:04.096Z,0
2017-01-23T01:30:12.744Z,0
2017-01-23T01:31:21.387Z,0
2017-01-23T01:32:30.035Z,0
2017-01-23T01:33:38.678Z,0
2017-01-23T01:34:47.328Z,0
2017-01-23T01:35:55.975Z,0
2017-01-23T01:37:04.626Z,0
2017-01-23T01:38:13.660Z,0
2017-01-23T01:39:22.307Z,0
2017-01-23T01:40:30.953Z,0
2017-01-23T01:41:39.599Z,0
2017-01-23T01:42:48.248Z,0
2017-01-23T01:43:56.890Z,0
2017-01-23T01:45:05.540Z,0
2017-01-23T01:46:14.188Z,0
2017-01-23T01:47:22.862Z,0
2017-01-23T01:48:31.512Z,0
2017-01-23T01:49:40.187Z,0
2017-01-23T01:50:48.836Z,0
2017-01-23T01:51:57.486Z,0
2017-01-23T01:53:06.162Z,0
2017-01-23T01:54:14.810Z,0
2017-01-23T01:55:23.488Z,0
2017-01-23T01:56:32.136Z,0
2017-01-23T01:57:40.781Z,0
2017-01-23T01:58:49.427Z,0
2017-01-23T01:59:58.480Z,0
2017-01-23T02:01:07.129Z,0
2017-01-23T02:02:15.777Z,0
2017-01-23T02:03:24.424Z,0
2017-01-23T02:04:33.071Z,0
2017-01-23T02:05:41.714Z,0
2017-01-23T02:06:50.362Z,0
2017-01-23T02:07:59.011Z,0
2017-01-23T02:09:07.665Z,0
2017-01-23T02:10:16.310Z,0
2017-01-23T02:11:24.953Z,0
2017-01-23T02:12:33.601Z,0
2017-01-23T02:13:42.268Z,0
2017-01-23T02:14:50.912Z,0
2017-01-23T02:15:59.587Z,0
2017-01-23T02:17:08.245Z,0
2017-01-23T02:18:16.891Z,0
2017-01-23T02:19:25.542Z,0
2017-01-23T02:20:34.192Z,0
2017-01-23T02:21:42.837Z,0
2017-01-23T02:22:51.485Z,0
2017-01-23T02:24:00.133Z,0
2017-01-23T02:25:08.780Z,0
2017-01-23T02:26:17.426Z,0
2017-01-23T02:27:26.461Z,0
2017-01-23T02:28:35.106Z,0
2017-01-23T02:29:43.749Z,0
2017-01-23T02:30:52.433Z,0
2017-01-23T02:32:01.084Z,0
2017-01-23T02:33:09.735Z,0
2017-01-23T02:34:18.380Z,0
2017-01-23T02:35:27.030Z,0
2017-01-23T02:36:35.679Z,0
2017-01-23T02:37:44.330Z,0
2017-01-23T02:38:52.973Z,0
2017-01-23T02:40:01.615Z,0
2017-01-23T02:41:10.266Z,0
2017-01-23T02:42:18.912Z,0
2017-01-23T02:43:27.947Z,0
2017-01-23T02:44:36.595Z,0
2017-01-23T02:45:45.248Z,0
2017-01-23T02:46:53.902Z,0
2017-01-23T02:48:02.582Z,0
2017-01-23T02:49:11.229Z,0
2017-01-23T02:50:19.875Z,0
2017-01-23T02:51:28.523Z,0
2017-01-23T02:52:37.168Z,0
2017-01-23T02:53:45.816Z,0
2017-01-23T02:54:54.462Z,0
2017-01-23T02:56:03.112Z,0
2017-01-23T02:57:11.755Z,0
2017-01-23T02:58:20.402Z,0
2017-01-23T02:59:29.049Z,0
2017-01-23T03:00:37.694Z,0
2017-01-23T03:01:46.339Z,0
2017-01-23T03:02:54.993Z,0
2017-01-23T03:04:03.649Z,0
2017-01-23T03:05:12.303Z,0
2017-01-23T03:06:20.951Z,0
2017-01-23T03:07:29.631Z,0
2017-01-23T03:08:38.287Z,0
2017-01-23T03:09:46.941Z,0
2017-01-23T03:10:55.585Z,0
2017-01-23T03:12:04.237Z,0
2017-01-23T03:13:12.890Z,0
2017-01-23T03:14:21.535Z,0
2017-01-23T03:15:30.179Z,0
2017-01-23T03:16:38.826Z,0
2017-01-23T03:17:47.474Z,0
2017-01-23T03:18:56.121Z,0
2017-01-23T03:20:04.797Z,0
2017-01-23T03:21:13.437Z,0
2017-01-23T03:22:22.085Z,0
2017-01-23T03:23:30.727Z,0
2017-01-23T03:24:39.377Z,0
2017-01-23T03:25:48.020Z,0
2017-01-23T03:26:56.667Z,0
2017-01-23T03:28:05.331Z,0
2017-01-23T03:29:13.980Z,0
2017-01-23T03:30:22.626Z,0
2017-01-23T03:31:31.268Z,0
2017-01-23T03:32:39.913Z,0
2017-01-23T03:33:48.562Z,0
2017-01-23T03:34:57.203Z,0
2017-01-23T03:36:05.847Z,0
2017-01-23T03:37:14.526Z,0
2017-01-23T03:38:23.172Z,0
2017-01-23T03:39:31.821Z,0
2017-01-23T03:40:40.467Z,0
2017-01-23T03:41:49.114Z,0
2017-01-23T03:42:57.754Z,0
2017-01-23T03:44:06.428Z,0
2017-01-23T03:45:15.076Z,0
2017-01-23T03:46:23.734Z,0
2017-01-23T03:47:32.389Z,0
2017-01-23T03:48:41.032Z,0
2017-01-23T03:49:49.681Z,0
2017-01-23T03:50:58.327Z,0
2017-01-23T03:52:06.977Z,0
2017-01-23T03:53:15.622Z,0
2017-01-23T03:54:24.270Z,0
2017-01-23T03:55:32.917Z,0
2017-01-23T03:56:41.593Z,0
2017-01-23T03:57:50.251Z,0
2017-01-23T03:58:58.896Z,0
2017-01-23T04:00:07.548Z,0
2017-01-23T04:01:16.196Z,0
2017-01-23T04:02:24.842Z,0
2017-01-23T04:03:33.491Z,0
2017-01-23T04:04:42.143Z,0
2017-01-23T04:05:50.784Z,0
2017-01-23T04:06:59.431Z,0
2017-01-23T04:08:08.083Z,0
2017-01-23T04:09:16.738Z,0
2017-01-23T04:10:25.385Z,0
2017-01-23T04:11:34.036Z,0
2017-01-23T04:12:42.685Z,0
2017-01-23T04:13:51.326Z,0
2017-01-23T04:15:00.005Z,0
2017-01-23T04:16:08.660Z,0
2017-01-23T04:17:17.303Z,0
2017-01-23T04:18:25.951Z,0
2017-01-23T04:19:34.603Z,0
2017-01-23T04:20:43.256Z,0
2017-01-23T04:21:51.904Z,0
2017-01-23T04:23:00.549Z,0
2017-01-23T04:24:09.195Z,0
2017-01-23T04:25:17.842Z,0
2017-01-23T04:26:26.488Z,0
2017-01-23T04:27:35.136Z,0
2017-01-23T04:28:43.788Z,0
2017-01-23T04:29:52.432Z,0
2017-01-23T04:31:01.080Z,0
2017-01-23T04:32:09.729Z,0
2017-01-23T04:33:18.378Z,0
2017-01-23T04:34:27.025Z,0
2017-01-23T04:35:35.676Z,0
2017-01-23T04:36:44.329Z,0
2017-01-23T04:37:52.980Z,0
2017-01-23T04:39:01.628Z,0
2017-01-23T04:40:10.280Z,0
2017-01-23T04:41:18.923Z,0
2017-01-23T04:42:27.609Z,0
2017-01-23T04:43:36.257Z,0
2017-01-23T04:44:44.907Z,0
2017-01-23T04:45:53.555Z,0
2017-01-23T04:47:02.211Z,0
2017-01-23T04:48:10.858Z,0
2017-01-23T04:49:19.499Z,0
2017-01-23T04:50:28.141Z,0
2017-01-23T04:51:36.786Z,0
2017-01-23T04:52:45.444Z,0
2017-01-23T04:53:54.095Z,0
2017-01-23T04:55:02.742Z,0
2017-01-23T04:56:11.384Z,0
2017-01-23T04:57:20.033Z,0
2017-01-23T04:58:28.681Z,0
2017-01-23T04:59:37.356Z,0
2017-01-23T05:00:46.002Z,0
2017-01-23T05:01:54.647Z,0
2017-01-23T05:03:03.295Z,0
2017-01-23T05:04:11.950Z,0
2017-01-23T05:05:20.598Z,0
2017-01-23T05:06:29.243Z,0
2017-01-23T05:07:37.896Z,0
2017-01-23T05:08:46.541Z,0
2017-01-23T05:09:55.186Z,0
2017-01-23T05:11:03.833Z,0
2017-01-23T05:12:12.483Z,0
2017-01-23T05:13:21.128Z,0
2017-01-23T05:14:29.777Z,0
2017-01-23T05:15:38.419Z,0
2017-01-23T05:16:47.062Z,0
2017-01-23T05:17:55.710Z,0
2017-01-23T05:19:04.353Z,0
2017-01-23T05:20:13.005Z,0
2017-01-23T05:21:21.654Z,0
2017-01-23T05:22:30.306Z,0
2017-01-23T05:23:38.957Z,0
2017-01-23T05:24:47.607Z,0
2017-01-23T05:25:56.255Z,0
2017-01-23T05:27:04.899Z,0
2017-01-23T05:28:13.550Z,0
2017-01-23T05:29:22.196Z,0
2017-01-23T05:30:30.837Z,0
2017-01-23T05:31:39.486Z,0
2017-01-23T05:32:48.133Z,0
2017-01-23T05:33:56.782Z,0
2017-01-23T05:35:05.428Z,0
2017-01-23T05:36:14.084Z,0
2017-01-23T05:37:22.738Z,0
2017-01-23T05:38:31.377Z,0
2017-01-23T05:39:40.028Z,0
2017-01-23T05:40:48.677Z,0
2017-01-23T05:41:57.324Z,0
2017-01-23T05:43:05.976Z,0
2017-01-23T05:44:14.620Z,0
2017-01-23T05:45:23.270Z,0
2017-01-23T05:46:31.919Z,0
2017-01-23T05:47:40.564Z,0
2017-01-23T05:48:49.210Z,0
2017-01-23T05:49:57.856Z,0
2017-01-23T05:51:06.503Z,0
2017-01-23T05:52:15.148Z,0
2017-01-23T05:53:23.804Z,0
2017-01-23T05:54:32.448Z,0
2017-01-23T05:55:41.098Z,0
2017-01-23T05:56:49.750Z,0
2017-01-23T05:57:58.395Z,0
2017-01-23T05:59:07.042Z,0
2017-01-23T06:00:15.686Z,0
2017-01-23T06:01:24.327Z,0
2017-01-23T06:02:32.974Z,0
2017-01-23T06:03:41.621Z,0
2017-01-23T06:04:50.267Z,0
2017-01-23T06:05:58.920Z,0
2017-01-23T06:07:07.573Z,0
2017-01-23T06:08:16.231Z,0
2017-01-23T06:09:24.879Z,0
2017-01-23T06:10:33.528Z,0
2017-01-23T06:11:42.177Z,0
2017-01-23T06:12:50.826Z,0
2017-01-23T06:13:59.474Z,0
2017-01-23T06:15:08.117Z,0
2017-01-23T06:16:16.762Z,0
2017-01-23T06:17:25.418Z,0
2017-01-23T06:18:34.068Z,0
2017-01-23T06:19:42.718Z,0
2017-01-23T06:20:51.368Z,0
2017-01-23T06:22:00.040Z,0
2017-01-23T06:23:08.691Z,0
2017-01-23T06:24:17.340Z,0
2017-01-23T06:25:25.994Z,0
2017-01-23T06:26:34.639Z,0
2017-01-23T06:27:43.286Z,0
2017-01-23T06:28:51.943Z,0
2017-01-23T06:30:00.594Z,0
2017-01-23T06:31:09.241Z,0
2017-01-23T06:32:17.887Z,0
2017-01-23T06:33:26.534Z,0
2017-01-23T06:34:35.192Z,0
2017-01-23T06:35:43.874Z,0
2017-01-23T06:36:52.523Z,0
2017-01-23T06:38:01.168Z,0
2017-01-23T06:39:10.200Z,0
2017-01-23T06:40:18.843Z,0
2017-01-23T06:41:27.492Z,0
2017-01-23T06:42:36.136Z,0
2017-01-23T06:43:44.792Z,0
2017-01-23T06:44:53.457Z,0
2017-01-23T06:46:02.107Z,0
2017-01-23T06:47:10.786Z,0
2017-01-23T06:48:19.434Z,0
2017-01-23T06:49:28.080Z,0
2017-01-23T06:50:36.737Z,0
2017-01-23T06:51:45.390Z,0
2017-01-23T06:52:54.037Z,0
2017-01-23T06:54:02.685Z,0
2017-01-23T06:55:11.431Z,0
2017-01-23T06:56:20.092Z,0
2017-01-23T06:57:28.742Z,0
2017-01-23T06:58:37.390Z,0
2017-01-23T06:59:46.046Z,0
2017-01-23T07:00:54.698Z,0
2017-01-23T07:02:03.350Z,0
2017-01-23T07:03:11.995Z,0
2017-01-23T07:04:20.644Z,0
2017-01-23T07:05:29.297Z,0
2017-01-23T07:06:37.946Z,0
2017-01-23T07:07:46.598Z,0
2017-01-23T07:08:55.245Z,0
2017-01-23T07:10:03.893Z,0
2017-01-23T07:11:12.545Z,0
2017-01-23T07:12:21.194Z,0
2017-01-23T07:13:29.854Z,0
2017-01-23T07:14:38.501Z,0
2017-01-23T07:15:47.149Z,0
2017-01-23T07:16:55.802Z,0
2017-01-23T07:18:04.450Z,0
2017-01-23T07:19:13.096Z,0
2017-01-23T07:20:21.743Z,0
2017-01-23T07:21:30.395Z,0
2017-01-23T07:22:39.042Z,5
2017-01-23T07:23:47.692Z,5
2017-01-23T07:24:56.337Z,5
2017-01-23T07:26:04.986Z,5
2017-01-23T07:27:13.639Z,5
2017-01-23T07:28:22.292Z,5
2017-01-23T07:29:30.942Z,5
2017-01-23T07:30:39.592Z,5
2017-01-23T07:31:48.237Z,5
2017-01-23T07:32:56.911Z,5
2017-01-23T07:34:05.582Z,5
2017-01-23T07:35:14.229Z,10
2017-01-23T07:36:22.881Z,10
2017-01-23T07:37:31.524Z,10
2017-01-23T07:38:40.174Z,10
2017-01-23T07:39:48.858Z,10
2017-01-23T07:40:57.506Z,15
2017-01-23T07:42:06.574Z,15
2017-01-23T07:43:15.227Z,15
2017-01-23T07:44:23.875Z,15
2017-01-23T07:45:32.530Z,15
2017-01-23T07:46:41.180Z,15
2017-01-23T07:47:49.832Z,20
2017-01-23T07:48:58.481Z,20
2017-01-23T07:50:07.138Z,20
2017-01-23T07:51:15.804Z,20
2017-01-23T07:52:24.454Z,20
2017-01-23T07:53:33.105Z,20
2017-01-23T07:54:41.754Z,25
2017-01-23T07:55:50.412Z,25
2017-01-23T07:56:59.061Z,25
2017-01-23T07:58:07.710Z,25
2017-01-23T07:59:16.361Z,25
2017-01-23T08:00:25.006Z,30
2017-01-23T08:01:33.653Z,30
2017-01-23T08:02:42.309Z,30
2017-01-23T08:03:50.971Z,30
2017-01-23T08:04:59.622Z,30
2017-01-23T08:06:08.273Z,30
2017-01-23T08:07:16.920Z,30
2017-01-23T08:08:25.569Z,30
2017-01-23T08:09:34.222Z,30
2017-01-23T08:10:42.897Z,30
2017-01-23T08:11:51.569Z,30
2017-01-23T08:13:00.220Z,35
2017-01-23T08:14:08.866Z,35
2017-01-23T08:15:17.520Z,35
2017-01-23T08:16:26.166Z,35
2017-01-23T08:17:34.816Z,40
2017-01-23T08:18:43.503Z,45
2017-01-23T08:19:52.164Z,40
2017-01-23T08:21:00.809Z,40
2017-01-23T08:22:09.461Z,35
2017-01-23T08:23:18.111Z,40
2017-01-23T08:24:26.764Z,40
2017-01-23T08:25:35.412Z,35
2017-01-23T08:26:44.057Z,35
2017-01-23T08:27:52.707Z,35
2017-01-23T08:29:01.352Z,35
2017-01-23T08:30:10.004Z,35
2017-01-23T08:31:18.660Z,40
2017-01-23T08:32:27.307Z,40
2017-01-23T08:33:35.955Z,40
2017-01-23T08:34:44.602Z,40
2017-01-23T08:35:53.259Z,45
2017-01-23T08:37:01.909Z,50
2017-01-23T08:38:10.563Z,50
2017-01-23T08:39:19.210Z,50
2017-01-23T08:40:27.859Z,55
2017-01-23T08:41:36.511Z,60
2017-01-23T08:42:45.157Z,60
2017-01-23T08:43:53.804Z,65
2017-01-23T08:45:02.454Z,65
2017-01-23T08:46:11.110Z,65
2017-01-23T08:47:19.764Z,65
2017-01-23T08:48:28.799Z,70
2017-01-23T08:49:37.453Z,70
2017-01-23T08:50:46.106Z,75
2017-01-23T08:51:54.759Z,80
2017-01-23T08:53:03.406Z,80
2017-01-23T08:54:12.058Z,80
2017-01-23T08:55:20.703Z,85
2017-01-23T08:56:29.354Z,85
2017-01-23T08:57:37.998Z,85
2017-01-23T08:58:46.644Z,90
2017-01-23T08:59:55.298Z,90
2017-01-23T09:01:03.949Z,85
2017-01-23T09:02:12.596Z,85
2017-01-23T09:03:21.242Z,90
2017-01-23T09:04:29.891Z,95
2017-01-23T09:05:38.539Z,95
2017-01-23T09:06:47.187Z,95
2017-01-23T09:07:55.841Z,95
2017-01-23T09:09:04.495Z,95
2017-01-23T09:10:13.146Z,95
2017-01-23T09:11:21.791Z,100
2017-01-23T09:12:30.437Z,100
2017-01-23T09:13:39.089Z,105
2017-01-23T09:14:47.738Z,100
2017-01-23T09:15:56.388Z,100
2017-01-23T09:17:05.040Z,105
2017-01-23T09:18:13.686Z,105
2017-01-23T09:19:22.341Z,110
2017-01-23T09:20:30.991Z,115
2017-01-23T09:21:39.641Z,115
2017-01-23T09:22:48.291Z,115
2017-01-23T09:23:56.947Z,115
2017-01-23T09:25:05.604Z,115
2017-01-23T09:26:14.252Z,115
2017-01-23T09:27:22.901Z,120
2017-01-23T09:28:31.554Z,125
2017-01-23T09:29:40.201Z,135
2017-01-23T09:30:48.875Z,140
2017-01-23T09:31:57.529Z,145
2017-01-23T09:33:06.180Z,145
2017-01-23T09:34:14.829Z,150
2017-01-23T09:35:23.481Z,155
2017-01-23T09:36:32.135Z,155
2017-01-23T09:37:40.797Z,160
2017-01-23T09:38:49.447Z,165
2017-01-23T09:39:58.103Z,170
2017-01-23T09:41:06.758Z,175
2017-01-23T09:42:15.413Z,185
2017-01-23T09:43:24.098Z,195
2017-01-23T09:44:32.747Z,210
2017-01-23T09:45:41.395Z,220
2017-01-23T09:46:50.050Z,225
2017-01-23T09:47:58.699Z,225
2017-01-23T09:49:07.349Z,225
2017-01-23T09:50:15.998Z,225
2017-01-23T09:51:24.656Z,210
2017-01-23T09:52:33.307Z,215
2017-01-23T09:53:41.966Z,220
2017-01-23T09:54:50.618Z,225
2017-01-23T09:55:59.273Z,230
2017-01-23T09:57:07.927Z,225
2017-01-23T09:58:16.585Z,225
2017-01-23T09:59:25.236Z,230
2017-01-23T10:00:33.885Z,235
2017-01-23T10:01:42.535Z,240
2017-01-23T10:02:51.192Z,235
2017-01-23T10:03:59.844Z,235
2017-01-23T10:05:08.498Z,230
2017-01-23T10:06:17.152Z,220
2017-01-23T10:07:25.801Z,210
2017-01-23T10:08:34.462Z,210
2017-01-23T10:09:43.117Z,210
2017-01-23T10:10:51.766Z,220
2017-01-23T10:12:00.414Z,230
2017-01-23T10:13:09.101Z,235
2017-01-23T10:14:17.758Z,240
2017-01-23T10:15:26.410Z,245
2017-01-23T10:16:35.069Z,245
2017-01-23T10:17:43.719Z,235
2017-01-23T10:18:52.365Z,225
2017-01-23T10:20:01.019Z,225
2017-01-23T10:21:09.671Z,220
2017-01-23T10:22:18.325Z,215
2017-01-23T10:23:26.977Z,220
2017-01-23T10:24:35.626Z,225
2017-01-23T10:25:44.281Z,225
2017-01-23T10:26:52.936Z,230
2017-01-23T10:28:01.587Z,235
2017-01-23T10:29:10.244Z,240
2017-01-23T10:30:18.923Z,245
2017-01-23T10:31:27.575Z,255
2017-01-23T10:32:36.226Z,255
2017-01-23T10:33:44.873Z,260
2017-01-23T10:34:53.523Z,255
2017-01-23T10:36:02.178Z,255
2017-01-23T10:37:10.826Z,245
2017-01-23T10:38:19.481Z,245
2017-01-23T10:39:28.149Z,250
2017-01-23T10:40:36.806Z,245
2017-01-23T10:41:45.459Z,235
2017-01-23T10:42:54.111Z,235
2017-01-23T10:44:02.765Z,245
2017-01-23T10:45:11.418Z,250
2017-01-23T10:46:20.102Z,240
2017-01-23T10:47:28.756Z,250
2017-01-23T10:48:37.407Z,250
2017-01-23T10:49:46.057Z,245
2017-01-23T10:50:54.711Z,245
2017-01-23T10:52:03.356Z,245
2017-01-23T10:53:12.004Z,240
2017-01-23T10:54:20.656Z,230
2017-01-23T10:55:29.314Z,215
2017-01-23T10:56:37.963Z,205
2017-01-23T10:57:46.618Z,205
2017-01-23T10:58:55.271Z,220
2017-01-23T11:00:03.918Z,230
2017-01-23T11:01:12.571Z,235
2017-01-23T11:02:21.247Z,225
2017-01-23T11:03:29.897Z,225
2017-01-23T11:04:38.546Z,220
2017-01-23T11:05:47.199Z,215
2017-01-23T11:06:55.849Z,220
2017-01-23T11:08:04.501Z,220
2017-01-23T11:09:13.151Z,230
2017-01-23T11:10:21.806Z,235
2017-01-23T11:11:30.454Z,230
2017-01-23T11:12:39.114Z,235
2017-01-23T11:13:47.765Z,230
2017-01-23T11:14:56.418Z,225
2017-01-23T11:16:05.085Z,225
2017-01-23T11:17:13.734Z,220
2017-01-23T11:18:22.385Z,220
2017-01-23T11:19:31.039Z,230
2017-01-23T11:20:39.686Z,240
2017-01-23T11:21:48.339Z,240
2017-01-23T11:22:56.987Z,245
2017-01-23T11:24:05.639Z,250
2017-01-23T11:25:14.293Z,240
2017-01-23T11:26:22.971Z,235
2017-01-23T11:27:32.014Z,235
2017-01-23T11:28:40.662Z,245
2017-01-23T11:29:49.312Z,245
2017-01-23T11:30:57.961Z,240
2017-01-23T11:32:06.620Z,235
2017-01-23T11:33:15.273Z,235
2017-01-23T11:34:23.927Z,240
2017-01-23T11:35:32.590Z,250
2017-01-23T11:36:41.241Z,250
2017-01-23T11:37:49.898Z,240
2017-01-23T11:38:58.552Z,235
2017-01-23T11:40:07.203Z,235
2017-01-23T11:41:15.855Z,200
2017-01-23T11:42:24.511Z,230
2017-01-23T11:43:33.164Z,220
2017-01-23T11:44:41.816Z,220
2017-01-23T11:45:50.468Z,215
2017-01-23T11:46:59.125Z,190
2017-01-23T11:48:07.773Z,200
2017-01-23T11:49:16.423Z,190
2017-01-23T11:50:25.069Z,200
2017-01-23T11:51:33.725Z,245
2017-01-23T11:52:42.383Z,275
2017-01-23T11:53:51.066Z,270
2017-01-23T11:54:59.722Z,280
2017-01-23T11:56:08.383Z,270
2017-01-23T11:57:17.033Z,255
2017-01-23T11:58:25.683Z,215
2017-01-23T11:59:34.339Z,215
2017-01-23T12:00:42.990Z,180
2017-01-23T12:01:51.640Z,190
2017-01-23T12:03:00.290Z,260
2017-01-23T12:04:08.943Z,275
2017-01-23T12:05:17.604Z,280
2017-01-23T12:06:26.256Z,285
2017-01-23T12:07:34.909Z,290
2017-01-23T12:08:43.571Z,300
2017-01-23T12:09:52.219Z,305
2017-01-23T12:11:00.875Z,310
2017-01-23T12:12:09.525Z,305
2017-01-23T12:13:18.170Z,305
2017-01-23T12:14:26.827Z,310
2017-01-23T12:15:35.480Z,300
2017-01-23T12:16:44.128Z,295
2017-01-23T12:17:52.780Z,265
2017-01-23T12:19:01.432Z,245
2017-01-23T12:20:10.086Z,240
2017-01-23T12:21:18.736Z,225
2017-01-23T12:22:27.388Z,205
2017-01-23T12:23:36.035Z,225
2017-01-23T12:24:44.690Z,245
2017-01-23T12:25:53.345Z,250
2017-01-23T12:27:02.037Z,245
2017-01-23T12:28:10.687Z,250
2017-01-23T12:29:19.338Z,265
2017-01-23T12:30:28.007Z,260
2017-01-23T12:31:36.658Z,250
2017-01-23T12:32:45.309Z,250
2017-01-23T12:33:53.957Z,255
2017-01-23T12:35:02.632Z,255
2017-01-23T12:36:11.294Z,255
2017-01-23T12:37:19.951Z,260
2017-01-23T12:38:28.605Z,255
2017-01-23T12:39:37.254Z,255
2017-01-23T12:40:45.910Z,250
2017-01-23T12:41:54.561Z,235
2017-01-23T12:43:03.212Z,235
2017-01-23T12:44:11.866Z,235
2017-01-23T12:45:20.512Z,230
2017-01-23T12:46:29.161Z,230
2017-01-23T12:47:37.812Z,235
2017-01-23T12:48:46.460Z,230
2017-01-23T12:49:55.114Z,215
2017-01-23T12:51:03.762Z,215
2017-01-23T12:52:12.409Z,225
2017-01-23T12:53:21.064Z,235
2017-01-23T12:54:29.723Z,230
2017-01-23T12:55:38.379Z,230
2017-01-23T12:56:47.031Z,220
2017-01-23T12:57:56.069Z,215
2017-01-23T12:59:04.733Z,220
2017-01-23T13:00:13.393Z,215
2017-01-23T13:01:22.048Z,215
2017-01-23T13:02:30.697Z,210
2017-01-23T13:03:39.348Z,220
2017-01-23T13:04:47.997Z,220
2017-01-23T13:05:56.655Z,215
2017-01-23T13:07:05.308Z,210
2017-01-23T13:08:13.972Z,205
2017-01-23T13:09:22.629Z,215
2017-01-23T13:10:31.281Z,210
2017-01-23T13:11:39.940Z,190
2017-01-23T13:12:48.591Z,170
2017-01-23T13:13:57.245Z,150
2017-01-23T13:15:05.900Z,150
2017-01-23T13:16:14.550Z,170
2017-01-23T13:17:23.206Z,185
2017-01-23T13:18:31.858Z,170
2017-01-23T13:19:40.509Z,170
2017-01-23T13:20:49.194Z,185
2017-01-23T13:21:57.852Z,190
2017-01-23T13:23:06.504Z,205
2017-01-23T13:24:15.159Z,180
2017-01-23T13:25:23.808Z,175
2017-01-23T13:26:32.461Z,170
2017-01-23T13:27:41.116Z,135
2017-01-23T13:28:49.769Z,145
2017-01-23T13:29:58.424Z,145
2017-01-23T13:31:07.079Z,150
2017-01-23T13:32:15.753Z,160
2017-01-23T13:33:24.409Z,165
2017-01-23T13:34:33.065Z,160
2017-01-23T13:35:41.724Z,160
2017-01-23T13:36:50.406Z,165
2017-01-23T13:37:59.058Z,150
2017-01-23T13:39:07.709Z,130
2017-01-23T13:40:16.366Z,125
2017-01-23T13:41:25.020Z,130
2017-01-23T13:42:33.676Z,125
2017-01-23T13:43:42.725Z,120
2017-01-23T13:44:51.376Z,130
2017-01-23T13:46:00.035Z,130
2017-01-23T13:47:08.683Z,130
2017-01-23T13:48:17.333Z,135
2017-01-23T13:49:25.984Z,140
2017-01-23T13:50:34.639Z,130
2017-01-23T13:51:43.290Z,120
2017-01-23T13:52:51.943Z,115
2017-01-23T13:54:00.611Z,115
2017-01-23T13:55:09.263Z,115
2017-01-23T13:56:17.925Z,125
2017-01-23T13:57:26.603Z,120
2017-01-23T13:58:35.252Z,125
2017-01-23T13:59:43.930Z,120
2017-01-23T14:00:52.585Z,120
2017-01-23T14:02:01.237Z,115
2017-01-23T14:03:09.903Z,115
2017-01-23T14:04:18.562Z,115
2017-01-23T14:05:27.213Z,115
2017-01-23T14:06:35.876Z,105
2017-01-23T14:07:44.541Z,105
2017-01-23T14:08:53.192Z,100
2017-01-23T14:10:01.839Z,100
2017-01-23T14:11:10.490Z,100
2017-01-23T14:12:19.144Z,110
2017-01-23T14:13:27.804Z,100
2017-01-23T14:14:36.454Z,95
2017-01-23T14:15:45.111Z,105
2017-01-23T14:16:53.765Z,115
2017-01-23T14:18:02.414Z,125
2017-01-23T14:19:11.064Z,110
2017-01-23T14:20:19.716Z,110
2017-01-23T14:21:28.368Z,105
2017-01-23T14:22:37.022Z,105
2017-01-23T14:23:45.673Z,110
2017-01-23T14:24:54.325Z,110
2017-01-23T14:26:02.974Z,110
2017-01-23T14:27:11.629Z,105
2017-01-23T14:28:20.282Z,110
2017-01-23T14:29:28.931Z,115
2017-01-23T14:30:37.605Z,120
2017-01-23T14:31:46.255Z,120
2017-01-23T14:32:54.907Z,115
2017-01-23T14:34:03.560Z,115
2017-01-23T14:35:12.212Z,115
2017-01-23T14:36:20.859Z,120
2017-01-23T14:37:29.512Z,110
2017-01-23T14:38:38.160Z,105
2017-01-23T14:39:46.815Z,105
2017-01-23T14:40:55.471Z,100
2017-01-23T14:42:04.126Z,95
2017-01-23T14:43:12.778Z,90
2017-01-23T14:44:21.437Z,90
2017-01-23T14:45:30.089Z,85
2017-01-23T14:46:38.746Z,80
2017-01-23T14:47:47.400Z,80
2017-01-23T14:48:56.052Z,80
2017-01-23T14:50:04.703Z,80
2017-01-23T14:51:13.355Z,80
2017-01-23T14:52:22.009Z,80
2017-01-23T14:53:30.657Z,80
2017-01-23T14:54:39.312Z,80
2017-01-23T14:55:47.964Z,80
2017-01-23T14:56:56.637Z,80
2017-01-23T14:58:05.289Z,80
2017-01-23T14:59:13.948Z,75
2017-01-23T15:00:22.609Z,65
2017-01-23T15:01:31.258Z,65
2017-01-23T15:02:39.916Z,65
2017-01-23T15:03:48.572Z,65
2017-01-23T15:04:57.226Z,65
2017-01-23T15:06:05.886Z,65
2017-01-23T15:07:14.544Z,60
2017-01-23T15:08:23.199Z,65
2017-01-23T15:09:31.850Z,65
2017-01-23T15:10:40.508Z,60
2017-01-23T15:11:49.160Z,60
2017-01-23T15:12:57.810Z,60
2017-01-23T15:14:06.464Z,60
2017-01-23T15:15:15.119Z,60
2017-01-23T15:16:23.796Z,55
2017-01-23T15:17:32.452Z,55
2017-01-23T15:18:41.105Z,50
2017-01-23T15:19:49.751Z,50
2017-01-23T15:20:58.402Z,50
2017-01-23T15:22:07.058Z,50
2017-01-23T15:23:15.712Z,45
2017-01-23T15:24:24.389Z,45
2017-01-23T15:25:33.040Z,45
2017-01-23T15:26:41.697Z,40
2017-01-23T15:27:50.349Z,40
2017-01-23T15:28:58.996Z,35
2017-01-23T15:30:07.652Z,35
2017-01-23T15:31:16.305Z,35
2017-01-23T15:32:24.957Z,30
2017-01-23T15:33:33.613Z,30
2017-01-23T15:34:42.263Z,30
2017-01-23T15:35:50.917Z,30
2017-01-23T15:36:59.570Z,30
2017-01-23T15:38:08.219Z,25
2017-01-23T15:39:16.869Z,25
2017-01-23T15:40:25.523Z,25
2017-01-23T15:41:34.177Z,25
2017-01-23T15:42:42.829Z,20
2017-01-23T15:43:51.507Z,20
2017-01-23T15:45:00.157Z,20
2017-01-23T15:46:08.816Z,15
2017-01-23T15:47:17.473Z,15
2017-01-23T15:48:26.122Z,15
2017-01-23T15:49:34.775Z,15
2017-01-23T15:50:43.426Z,15
2017-01-23T15:51:52.072Z,15
2017-01-23T15:53:00.724Z,15
2017-01-23T15:54:09.401Z,10
2017-01-23T15:55:18.055Z,10
2017-01-23T15:56:26.703Z,10
2017-01-23T15:57:35.350Z,10
2017-01-23T15:58:43.998Z,10
2017-01-23T15:59:52.661Z,10
2017-01-23T16:01:01.316Z,10
2017-01-23T16:02:09.973Z,10
2017-01-23T16:03:18.629Z,5
2017-01-23T16:04:27.285Z,5
2017-01-23T16:05:35.935Z,5
2017-01-23T16:06:44.590Z,5
2017-01-23T16:07:53.243Z,5
2017-01-23T16:09:01.898Z,5
2017-01-23T16:10:10.550Z,5
2017-01-23T16:11:19.201Z,5
2017-01-23T16:12:27.853Z,5
2017-01-23T16:13:36.502Z,5
2017-01-23T16:14:45.155Z,0
2017-01-23T16:15:53.814Z,0
2017-01-23T16:17:02.493Z,0
2017-01-23T16:18:11.160Z,0
2017-01-23T16:19:19.811Z,0
2017-01-23T16:20:28.464Z,0
2017-01-23T16:21:37.121Z,0
2017-01-23T16:22:45.776Z,0
2017-01-23T16:23:54.427Z,0
2017-01-23T16:25:03.088Z,0